createdAt,value
2024-01-16T00:00:19.822Z,-7.90
2024-01-16T00:03:17.947Z,-7.90
2024-01-16T00:06:16.174Z,-7.90
2024-01-16T00:09:14.495Z,-8.00
2024-01-16T00:12:12.676Z,-8.00
2024-01-16T00:15:11.160Z,-8.00
2024-01-16T00:18:10.174Z,-7.90
2024-01-16T00:21:08.262Z,-8.00
2024-01-16T00:24:06.700Z,-7.90
2024-01-16T00:27:06.244Z,-7.90
2024-01-16T00:30:06.061Z,-7.90
2024-01-16T00:33:04.577Z,-8.00
2024-01-16T00:36:02.733Z,-8.00
2024-01-16T00:39:00.885Z,-8.00
2024-01-16T00:41:59.227Z,-8.10
2024-01-16T00:44:57.414Z,-8.10
2024-01-16T00:47:55.654Z,-8.00
2024-01-16T00:50:54.057Z,-8.00
2024-01-16T00:53:52.472Z,-8.00
2024-01-16T00:56:50.697Z,-8.10
2024-01-16T00:59:49.241Z,-7.90
2024-01-16T01:02:47.465Z,-8.10
2024-01-16T01:05:45.797Z,-8.00
2024-01-16T01:08:43.960Z,-8.10
2024-01-16T01:11:42.326Z,-8.10
2024-01-16T01:14:40.516Z,-8.10
2024-01-16T01:17:38.877Z,-8.20
2024-01-16T01:20:37.013Z,-8.20
2024-01-16T01:23:35.279Z,-8.20
2024-01-16T01:26:33.365Z,-8.20
2024-01-16T01:29:31.537Z,-8.20
2024-01-16T01:32:29.676Z,-8.30
2024-01-16T01:35:28.282Z,-8.40
2024-01-16T01:38:26.405Z,-8.30
2024-01-16T01:41:24.582Z,-8.40
2024-01-16T01:44:22.737Z,-8.40
2024-01-16T01:47:21.524Z,-8.30
2024-01-16T01:50:20.181Z,-8.40
2024-01-16T01:53:18.424Z,-8.40
2024-01-16T01:56:18.778Z,-8.40
2024-01-16T01:59:19.937Z,-8.50
2024-01-16T02:02:18.901Z,-8.40
2024-01-16T02:05:17.658Z,-8.30
2024-01-16T02:08:15.765Z,-8.30
2024-01-16T02:11:14.103Z,-8.30
2024-01-16T02:14:12.342Z,-8.20
2024-01-16T02:17:10.538Z,-8.20
2024-01-16T02:20:09.292Z,-8.20
2024-01-16T02:23:09.346Z,-8.30
2024-01-16T02:26:07.400Z,-8.40
2024-01-16T02:29:06.467Z,-8.40
2024-01-16T02:32:05.080Z,-8.30
2024-01-16T02:35:03.580Z,-8.40
2024-01-16T02:38:02.273Z,-8.40
2024-01-16T02:41:00.415Z,-8.40
2024-01-16T02:43:58.440Z,-8.40
2024-01-16T02:46:56.684Z,-8.30
2024-01-16T02:49:54.769Z,-8.40
2024-01-16T02:52:52.955Z,-8.40
2024-01-16T02:55:51.113Z,-8.30
2024-01-16T02:58:49.242Z,-8.40
2024-01-16T03:01:47.383Z,-8.30
2024-01-16T03:04:45.745Z,-8.30
2024-01-16T03:07:43.778Z,-8.40
2024-01-16T03:10:41.937Z,-8.30
2024-01-16T03:13:39.948Z,-8.40
2024-01-16T03:16:38.064Z,-8.30
2024-01-16T03:19:36.028Z,-8.40
2024-01-16T03:22:34.169Z,-8.20
2024-01-16T03:25:32.236Z,-8.10
2024-01-16T03:28:30.460Z,-8.10
2024-01-16T03:31:28.893Z,-8.10
2024-01-16T03:34:27.215Z,-8.10
2024-01-16T03:37:25.486Z,-8.10
2024-01-16T03:40:23.597Z,-8.10
2024-01-16T03:43:21.688Z,-8.00
2024-01-16T03:46:19.839Z,-8.00
2024-01-16T03:49:18.036Z,-8.00
2024-01-16T03:52:16.315Z,-8.00
2024-01-16T03:55:14.675Z,-7.90
2024-01-16T03:58:13.620Z,-7.90
2024-01-16T04:01:12.006Z,-7.80
2024-01-16T04:04:10.363Z,-7.90
2024-01-16T04:07:08.803Z,-8.00
2024-01-16T04:10:09.102Z,-8.00
2024-01-16T04:13:07.972Z,-8.00
2024-01-16T04:16:06.438Z,-7.90
2024-01-16T04:19:05.143Z,-7.90
2024-01-16T04:22:03.568Z,-7.90
2024-01-16T04:25:01.627Z,-7.90
2024-01-16T04:28:02.953Z,-7.90
2024-01-16T04:31:03.301Z,-7.80
2024-01-16T04:34:01.584Z,-7.80
2024-01-16T04:36:59.651Z,-7.70
2024-01-16T04:39:59.783Z,-7.70
2024-01-16T04:42:57.794Z,-7.70
2024-01-16T04:45:56.004Z,-7.70
2024-01-16T04:48:54.260Z,-7.70
2024-01-16T04:51:52.525Z,-7.70
2024-01-16T04:54:50.578Z,-7.70
2024-01-16T04:57:48.729Z,-7.70
2024-01-16T05:00:47.589Z,-7.70
2024-01-16T05:03:45.879Z,-7.70
2024-01-16T05:06:44.086Z,-7.60
2024-01-16T05:09:42.233Z,-7.70
2024-01-16T05:12:41.094Z,-7.70
2024-01-16T05:15:39.235Z,-7.70
2024-01-16T05:18:37.476Z,-7.70
2024-01-16T05:21:35.822Z,-7.60
2024-01-16T05:24:33.849Z,-7.50
2024-01-16T05:27:32.276Z,-7.50
2024-01-16T05:30:30.403Z,-7.50
2024-01-16T05:33:28.651Z,-7.40
2024-01-16T05:36:28.801Z,-7.50
2024-01-16T05:39:26.977Z,-7.40
2024-01-16T05:42:24.992Z,-7.50
2024-01-16T05:45:23.165Z,-7.50
2024-01-16T05:48:21.316Z,-7.30
2024-01-16T05:51:20.197Z,-7.30
2024-01-16T05:54:18.283Z,-7.30
2024-01-16T05:57:16.406Z,-7.30
2024-01-16T06:00:15.051Z,-7.10
2024-01-16T06:03:13.248Z,-7.20
2024-01-16T06:06:11.425Z,-7.20
2024-01-16T06:09:09.598Z,-7.20
2024-01-16T06:12:09.912Z,-7.00
2024-01-16T06:15:08.578Z,-7.00
2024-01-16T06:18:06.769Z,-6.90
2024-01-16T06:21:05.632Z,-6.90
2024-01-16T06:24:03.655Z,-6.90
2024-01-16T06:27:01.851Z,-6.90
2024-01-16T06:30:00.044Z,-6.90
2024-01-16T06:32:58.344Z,-6.80
2024-01-16T06:35:57.780Z,-6.80
2024-01-16T06:38:56.096Z,-6.60
2024-01-16T06:41:54.418Z,-6.60
2024-01-16T06:44:52.659Z,-6.70
2024-01-16T06:47:52.093Z,-6.50
2024-01-16T06:50:50.415Z,-6.50
2024-01-16T06:53:48.558Z,-6.50
2024-01-16T06:56:47.947Z,-6.50
2024-01-16T06:59:46.053Z,-6.60
2024-01-16T07:02:45.372Z,-6.50
2024-01-16T07:05:44.481Z,-6.50
2024-01-16T07:08:42.953Z,-6.50
2024-01-16T07:11:44.514Z,-6.50
2024-01-16T07:14:42.764Z,-6.40
2024-01-16T07:17:41.404Z,-6.40
2024-01-16T07:20:39.729Z,-6.40
2024-01-16T07:23:37.754Z,-6.40
2024-01-16T07:26:36.167Z,-6.40
2024-01-16T07:29:34.218Z,-6.40
2024-01-16T07:32:33.576Z,-6.40
2024-01-16T07:35:31.748Z,-6.50
2024-01-16T07:38:30.028Z,-6.50
2024-01-16T07:41:28.116Z,-6.60
2024-01-16T07:44:26.462Z,-6.60
2024-01-16T07:47:24.563Z,-6.70
2024-01-16T07:50:22.714Z,-6.70
2024-01-16T07:53:20.870Z,-6.70
2024-01-16T07:56:19.162Z,-6.80
2024-01-16T07:59:17.272Z,-6.80
2024-01-16T08:02:15.450Z,-6.80
2024-01-16T08:05:13.926Z,-7.00
2024-01-16T08:08:12.635Z,-7.00
2024-01-16T08:11:11.064Z,-6.90
2024-01-16T08:14:10.168Z,-7.00
2024-01-16T08:17:08.802Z,-7.00
2024-01-16T08:20:08.022Z,-7.00
2024-01-16T08:23:06.066Z,-7.00
2024-01-16T08:26:04.331Z,-6.90
2024-01-16T08:29:02.404Z,-7.00
2024-01-16T08:32:00.542Z,-7.20
2024-01-16T08:34:58.783Z,-7.10
2024-01-16T08:37:56.929Z,-7.10
2024-01-16T08:40:54.922Z,-7.20
2024-01-16T08:43:53.091Z,-7.20
2024-01-16T08:46:51.800Z,-7.10
2024-01-16T08:49:50.141Z,-7.20
2024-01-16T08:52:48.463Z,-7.20
2024-01-16T08:55:46.667Z,-7.20
2024-01-16T08:58:44.762Z,-7.20
2024-01-16T09:01:43.850Z,-7.10
2024-01-16T09:04:42.011Z,-7.20
2024-01-16T09:07:40.243Z,-7.20
2024-01-16T09:10:38.271Z,-7.10
2024-01-16T09:13:36.436Z,-7.00
2024-01-16T09:16:34.516Z,-7.10
2024-01-16T09:19:32.739Z,-7.20
2024-01-16T09:22:30.885Z,-7.20
2024-01-16T09:25:31.558Z,-7.10
2024-01-16T09:28:30.604Z,-7.10
2024-01-16T09:31:28.843Z,-7.10
2024-01-16T09:34:26.920Z,-7.10
2024-01-16T09:37:25.926Z,-7.10
2024-01-16T09:40:24.317Z,-7.10
2024-01-16T09:43:22.578Z,-7.10
2024-01-16T09:46:26.383Z,-7.20
2024-01-16T09:49:25.971Z,-7.30
2024-01-16T09:52:24.273Z,-7.30
2024-01-16T09:55:23.086Z,-7.20
2024-01-16T09:58:25.605Z,-7.20
2024-01-16T10:01:25.144Z,-7.20
2024-01-16T10:04:23.298Z,-7.10
2024-01-16T10:07:27.581Z,-7.10
2024-01-16T10:10:38.636Z,-7.00
2024-01-16T10:13:46.359Z,-7.00
2024-01-16T10:17:18.830Z,-7.10
2024-01-16T10:20:19.119Z,-7.10
2024-01-16T10:23:25.817Z,-7.20
2024-01-16T10:26:24.087Z,-7.10
2024-01-16T10:29:25.634Z,-7.20
2024-01-16T10:32:35.667Z,-7.20
2024-01-16T10:35:33.950Z,-7.20
2024-01-16T10:38:33.914Z,-7.20
2024-01-16T10:41:31.978Z,-7.30
2024-01-16T10:44:33.338Z,-7.40
2024-01-16T10:47:31.508Z,-7.40
2024-01-16T10:50:35.101Z,-7.50
2024-01-16T10:53:36.018Z,-7.50
2024-01-16T10:56:34.509Z,-7.60
2024-01-16T10:59:39.920Z,-7.50
2024-01-16T11:02:46.723Z,-7.60
2024-01-16T11:05:53.726Z,-7.60
2024-01-16T11:08:53.292Z,-7.50
2024-01-16T11:11:55.874Z,-7.60
2024-01-16T11:14:57.723Z,-7.50
2024-01-16T11:17:58.768Z,-7.50
2024-01-16T11:21:06.061Z,-7.40
2024-01-16T11:24:07.297Z,-7.40
2024-01-16T11:27:07.264Z,-7.40
2024-01-16T11:30:08.755Z,-7.40
2024-01-16T11:33:07.507Z,-7.50
2024-01-16T11:36:05.879Z,-7.50
2024-01-16T11:39:04.286Z,-7.50
2024-01-16T11:42:04.589Z,-7.60
2024-01-16T11:45:02.855Z,-7.60
2024-01-16T11:48:17.738Z,-7.60
2024-01-16T11:51:25.697Z,-7.50
2024-01-16T11:54:24.377Z,-7.60
2024-01-16T11:57:39.569Z,-7.60
2024-01-16T12:00:39.749Z,-7.50
2024-01-16T12:03:37.936Z,-7.50
2024-01-16T12:06:37.857Z,-7.70
2024-01-16T12:09:36.113Z,-7.70
2024-01-16T12:12:34.974Z,-7.80
2024-01-16T12:15:33.573Z,-7.80
2024-01-16T12:18:40.416Z,-7.90
2024-01-16T12:21:45.731Z,-7.90
2024-01-16T12:24:44.308Z,-8.00
2024-01-16T12:27:42.526Z,-7.90
2024-01-16T12:30:40.629Z,-7.90
2024-01-16T12:33:40.154Z,-7.90
2024-01-16T12:36:39.977Z,-7.90
2024-01-16T12:39:39.301Z,-7.90
2024-01-16T12:42:37.487Z,-7.90
2024-01-16T12:45:36.286Z,-7.90
2024-01-16T12:48:34.538Z,-7.90
2024-01-16T12:51:32.859Z,-7.90
2024-01-16T12:54:30.954Z,-7.90
2024-01-16T12:57:29.353Z,-7.80
2024-01-16T13:00:27.694Z,-7.80
2024-01-16T13:03:28.827Z,-7.90
2024-01-16T13:06:26.977Z,-8.00
2024-01-16T13:09:25.530Z,-8.00
2024-01-16T13:12:23.624Z,-8.10
2024-01-16T13:15:21.982Z,-8.00
2024-01-16T13:18:23.704Z,-8.00
2024-01-16T13:21:22.002Z,-8.00
2024-01-16T13:24:23.359Z,-8.00
2024-01-16T13:27:21.657Z,-8.00
2024-01-16T13:30:21.931Z,-8.00
2024-01-16T13:33:20.975Z,-8.00
2024-01-16T13:36:33.543Z,-7.90
2024-01-16T13:39:40.138Z,-7.90
2024-01-16T13:42:38.969Z,-7.90
2024-01-16T13:45:37.724Z,-8.00
2024-01-16T13:48:36.283Z,-8.00
2024-01-16T13:51:34.492Z,-8.00
2024-01-16T13:54:32.831Z,-8.10
2024-01-16T13:57:31.111Z,-8.00
2024-01-16T14:00:29.289Z,-8.00
2024-01-16T14:03:28.561Z,-8.00
2024-01-16T14:06:47.789Z,-8.00
2024-01-16T14:09:46.148Z,-8.00
2024-01-16T14:12:46.809Z,-8.10
2024-01-16T14:15:45.209Z,-8.10
2024-01-16T14:18:43.595Z,-8.10
2024-01-16T14:21:41.847Z,-8.20
2024-01-16T14:24:39.935Z,-8.20
2024-01-16T14:27:41.179Z,-8.20
2024-01-16T14:30:43.164Z,-8.20
2024-01-16T14:33:42.398Z,-8.20
2024-01-16T14:36:41.581Z,-8.10
2024-01-16T14:39:39.773Z,-8.10
2024-01-16T14:42:37.957Z,-8.20
2024-01-16T14:45:36.164Z,-8.10
2024-01-16T14:48:34.347Z,-8.20
2024-01-16T14:51:32.752Z,-8.20
2024-01-16T14:54:31.217Z,-8.20
2024-01-16T14:57:33.412Z,-8.20
2024-01-16T15:00:32.688Z,-8.20
2024-01-16T15:03:30.925Z,-8.10
2024-01-16T15:06:29.450Z,-8.20
2024-01-16T15:09:27.693Z,-8.10
2024-01-16T15:12:25.719Z,-8.10
2024-01-16T15:15:25.343Z,-8.10
2024-01-16T15:18:23.715Z,-8.10
2024-01-16T15:21:23.199Z,-8.20
2024-01-16T15:24:27.955Z,-8.20
2024-01-16T15:27:26.093Z,-8.20
2024-01-16T15:30:34.677Z,-8.30
2024-01-16T15:33:32.912Z,-8.20
2024-01-16T15:36:32.041Z,-8.20
2024-01-16T15:39:30.615Z,-8.30
2024-01-16T15:42:29.220Z,-8.30
2024-01-16T15:45:29.191Z,-8.20
2024-01-16T15:48:34.546Z,-8.30
2024-01-16T15:51:33.408Z,-8.30
2024-01-16T15:54:32.477Z,-8.40
2024-01-16T15:57:31.033Z,-8.40
2024-01-16T16:00:29.399Z,-8.30
2024-01-16T16:03:28.178Z,-8.30
2024-01-16T16:06:26.629Z,-8.30
2024-01-16T16:09:27.481Z,-8.30
2024-01-16T16:12:25.623Z,-8.30
2024-01-16T16:15:25.134Z,-8.30
2024-01-16T16:18:24.992Z,-8.20
2024-01-16T16:21:23.735Z,-8.20
2024-01-16T16:24:22.161Z,-8.20
2024-01-16T16:27:29.228Z,-8.20
2024-01-16T16:30:28.585Z,-8.30
2024-01-16T16:33:27.084Z,-8.20
2024-01-16T16:36:25.301Z,-8.20
2024-01-16T16:39:24.446Z,-8.20
2024-01-16T16:42:22.809Z,-8.10
2024-01-16T16:45:21.194Z,-8.20
2024-01-16T16:48:20.026Z,-8.20
2024-01-16T16:51:21.433Z,-8.10
2024-01-16T16:54:19.730Z,-8.20
2024-01-16T16:57:18.084Z,-8.20
2024-01-16T17:00:16.459Z,-8.20
2024-01-16T17:03:14.784Z,-8.10
2024-01-16T17:06:13.353Z,-8.10
2024-01-16T17:09:13.463Z,-8.20
2024-01-16T17:12:12.078Z,-8.20
2024-01-16T17:15:10.639Z,-8.20
2024-01-16T17:18:10.041Z,-8.30
2024-01-16T17:21:09.190Z,-8.20
2024-01-16T17:24:08.512Z,-8.20
2024-01-16T17:27:07.233Z,-8.20
2024-01-16T17:30:07.244Z,-8.10
2024-01-16T17:33:08.174Z,-8.20
2024-01-16T17:36:12.282Z,-8.20
2024-01-16T17:39:11.455Z,-8.10
2024-01-16T17:42:10.968Z,-8.20
2024-01-16T17:45:10.752Z,-8.20
2024-01-16T17:48:09.869Z,-8.10
2024-01-16T17:51:10.289Z,-8.20
2024-01-16T17:54:08.605Z,-8.10
2024-01-16T17:57:08.060Z,-8.20
2024-01-16T18:00:07.793Z,-8.10
2024-01-16T18:03:06.621Z,-8.10
2024-01-16T18:06:08.348Z,-8.20
2024-01-16T18:09:11.655Z,-8.20
2024-01-16T18:12:12.645Z,-8.10
2024-01-16T18:15:15.511Z,-8.10
2024-01-16T18:18:15.140Z,-8.10
2024-01-16T18:21:14.108Z,-8.10
2024-01-16T18:24:13.844Z,-8.10
2024-01-16T18:27:12.193Z,-8.20
2024-01-16T18:30:10.842Z,-8.00
2024-01-16T18:33:09.290Z,-8.00
2024-01-16T18:36:09.364Z,-8.00
2024-01-16T18:39:14.173Z,-8.10
2024-01-16T18:42:12.248Z,-8.00
2024-01-16T18:45:10.674Z,-8.10
2024-01-16T18:48:09.023Z,-8.00
2024-01-16T18:51:07.319Z,-8.10
2024-01-16T18:54:06.536Z,-8.10
2024-01-16T18:57:06.086Z,-8.10
2024-01-16T19:00:04.477Z,-8.20
2024-01-16T19:03:02.829Z,-8.20
2024-01-16T19:06:01.048Z,-8.20
2024-01-16T19:09:00.196Z,-8.20
2024-01-16T19:11:58.494Z,-8.20
2024-01-16T19:14:56.768Z,-8.20
2024-01-16T19:17:54.911Z,-8.30
2024-01-16T19:20:54.236Z,-8.20
2024-01-16T19:23:53.317Z,-8.20
2024-01-16T19:26:51.681Z,-8.20
2024-01-16T19:29:50.441Z,-8.20
2024-01-16T19:32:50.089Z,-8.30
2024-01-16T19:35:50.612Z,-8.30
2024-01-16T19:38:48.871Z,-8.30
2024-01-16T19:41:47.295Z,-8.30
2024-01-16T19:44:50.166Z,-8.40
2024-01-16T19:47:50.906Z,-8.40
2024-01-16T19:50:49.158Z,-8.50
2024-01-16T19:53:47.545Z,-8.40
2024-01-16T19:56:46.698Z,-8.40
2024-01-16T19:59:44.793Z,-8.50
2024-01-16T20:02:44.606Z,-8.40
2024-01-16T20:05:44.258Z,-8.40
2024-01-16T20:08:42.541Z,-8.60
2024-01-16T20:11:40.665Z,-8.60
2024-01-16T20:14:42.396Z,-8.60
2024-01-16T20:17:43.141Z,-8.60
2024-01-16T20:20:41.474Z,-8.50
2024-01-16T20:23:39.865Z,-8.60
2024-01-16T20:26:38.823Z,-8.70
2024-01-16T20:29:36.917Z,-8.70
2024-01-16T20:32:35.524Z,-8.80
2024-01-16T20:35:33.677Z,-8.80
2024-01-16T20:38:31.966Z,-8.80
2024-01-16T20:41:30.108Z,-8.80
2024-01-16T20:44:34.348Z,-8.80
2024-01-16T20:47:32.538Z,-8.70
2024-01-16T20:50:30.830Z,-8.80
2024-01-16T20:53:30.116Z,-8.70
2024-01-16T20:56:28.495Z,-8.70
2024-01-16T20:59:26.575Z,-8.70
2024-01-16T21:02:25.048Z,-8.70
2024-01-16T21:05:23.397Z,-8.60
2024-01-16T21:08:22.001Z,-8.70
2024-01-16T21:11:20.128Z,-8.80
2024-01-16T21:14:18.299Z,-8.80
2024-01-16T21:17:16.340Z,-8.80
2024-01-16T21:20:14.578Z,-8.80
2024-01-16T21:23:13.116Z,-8.80
2024-01-16T21:26:12.116Z,-8.80
2024-01-16T21:29:10.137Z,-8.80
2024-01-16T21:32:08.288Z,-8.80
2024-01-16T21:35:08.209Z,-8.80
2024-01-16T21:38:06.420Z,-8.90
2024-01-16T21:41:08.580Z,-8.90
2024-01-16T21:44:07.188Z,-8.90
2024-01-16T21:47:05.346Z,-8.80
2024-01-16T21:50:07.010Z,-8.80
2024-01-16T21:53:06.447Z,-8.90
2024-01-16T21:56:06.658Z,-8.90
2024-01-16T21:59:05.953Z,-8.90
2024-01-16T22:02:04.213Z,-8.80
2024-01-16T22:05:02.435Z,-8.90
2024-01-16T22:08:01.132Z,-9.10
2024-01-16T22:10:59.399Z,-9.10
2024-01-16T22:13:57.580Z,-9.10
2024-01-16T22:16:55.803Z,-9.10
2024-01-16T22:19:54.441Z,-9.10
2024-01-16T22:22:53.122Z,-9.20
2024-01-16T22:25:51.304Z,-9.20
2024-01-16T22:28:49.318Z,-9.10
2024-01-16T22:31:47.839Z,-9.00
2024-01-16T22:34:46.321Z,-9.10
2024-01-16T22:37:47.793Z,-9.10
2024-01-16T22:40:46.822Z,-9.10
2024-01-16T22:43:47.043Z,-9.10
2024-01-16T22:46:45.541Z,-9.10
2024-01-16T22:49:44.068Z,-9.00
2024-01-16T22:52:42.479Z,-9.00
2024-01-16T22:55:40.662Z,-9.00
2024-01-16T22:58:43.616Z,-9.10
2024-01-16T23:01:41.761Z,-9.00
2024-01-16T23:04:39.903Z,-9.00
2024-01-16T23:07:38.101Z,-9.00
2024-01-16T23:10:36.463Z,-9.00
2024-01-16T23:13:35.908Z,-9.10
2024-01-16T23:16:34.274Z,-9.00
2024-01-16T23:19:32.459Z,-9.00
2024-01-16T23:22:31.848Z,-8.90
2024-01-16T23:25:29.977Z,-8.90
2024-01-16T23:28:28.002Z,-9.00
2024-01-16T23:31:26.331Z,-8.90
2024-01-16T23:34:24.963Z,-9.00
2024-01-16T23:37:27.209Z,-9.00
2024-01-16T23:40:26.044Z,-9.00
2024-01-16T23:43:24.732Z,-9.00
2024-01-16T23:46:23.302Z,-9.00
2024-01-16T23:49:22.772Z,-9.00
2024-01-16T23:52:20.798Z,-9.00
2024-01-16T23:55:19.744Z,-9.00
2024-01-16T23:58:17.752Z,-9.00
